sensor_id;sensor_type;location;lat;lon;timestamp;P1;durP1;ratioP1;P2;durP2;ratioP2
19434;SDS011;9853;50.848;4.108;2023-07-20T00:00:40;9.05;;;2.13;;
19434;SDS011;9853;50.848;4.108;2023-07-20T00:02:41;9.13;;;2.25;;
19434;SDS011;9853;50.848;4.108;2023-07-20T00:04:42;9.65;;;2.25;;
19434;SDS011;9853;50.848;4.108;2023-07-20T00:06:42;5.07;;;2.13;;
19434;SDS011;9853;50.848;4.108;2023-07-20T00:08:43;8.85;;;2.28;;
19434;SDS011;9853;50.848;4.108;2023-07-20T00:10:44;13.57;;;2.17;;
19434;SDS011;9853;50.848;4.108;2023-07-20T00:12:44;8.07;;;2.17;;
19434;SDS011;9853;50.848;4.108;2023-07-20T00:14:47;8.60;;;2.40;;
19434;SDS011;9853;50.848;4.108;2023-07-20T00:16:50;8.13;;;2.22;;
19434;SDS011;9853;50.848;4.108;2023-07-20T00:18:55;9.63;;;2.28;;
19434;SDS011;9853;50.848;4.108;2023-07-20T00:20:56;12.93;;;2.88;;
19434;SDS011;9853;50.848;4.108;2023-07-20T00:22:57;10.00;;;2.38;;
19434;SDS011;9853;50.848;4.108;2023-07-20T00:24:58;7.30;;;2.40;;
19434;SDS011;9853;50.848;4.108;2023-07-20T00:26:59;9.75;;;2.75;;
19434;SDS011;9853;50.848;4.108;2023-07-20T00:29:01;9.95;;;2.33;;
19434;SDS011;9853;50.848;4.108;2023-07-20T00:31:01;11.02;;;2.72;;
19434;SDS011;9853;50.848;4.108;2023-07-20T00:33:03;7.65;;;2.45;;
19434;SDS011;9853;50.848;4.108;2023-07-20T00:35:04;13.80;;;2.88;;
19434;SDS011;9853;50.848;4.108;2023-07-20T00:37:05;7.45;;;2.50;;
19434;SDS011;9853;50.848;4.108;2023-07-20T00:39:05;11.15;;;2.88;;
19434;SDS011;9853;50.848;4.108;2023-07-20T00:41:06;13.18;;;2.88;;
19434;SDS011;9853;50.848;4.108;2023-07-20T00:43:08;9.10;;;2.42;;
19434;SDS011;9853;50.848;4.108;2023-07-20T00:45:09;10.10;;;2.70;;
19434;SDS011;9853;50.848;4.108;2023-07-20T00:47:10;9.27;;;2.90;;
19434;SDS011;9853;50.848;4.108;2023-07-20T00:49:11;12.30;;;2.90;;
19434;SDS011;9853;50.848;4.108;2023-07-20T00:51:12;13.73;;;2.83;;
19434;SDS011;9853;50.848;4.108;2023-07-20T00:53:13;12.10;;;2.97;;
19434;SDS011;9853;50.848;4.108;2023-07-20T00:55:14;16.92;;;3.47;;
19434;SDS011;9853;50.848;4.108;2023-07-20T00:57:15;13.68;;;2.83;;
19434;SDS011;9853;50.848;4.108;2023-07-20T00:59:17;12.82;;;3.08;;
19434;SDS011;9853;50.848;4.108;2023-07-20T01:01:18;12.32;;;2.78;;
19434;SDS011;9853;50.848;4.108;2023-07-20T01:03:21;8.95;;;3.03;;
19434;SDS011;9853;50.848;4.108;2023-07-20T01:05:26;12.35;;;3.17;;
19434;SDS011;9853;50.848;4.108;2023-07-20T01:07:41;13.70;;;3.35;;
19434;SDS011;9853;50.848;4.108;2023-07-20T01:10:06;12.07;;;3.10;;
19434;SDS011;9853;50.848;4.108;2023-07-20T01:12:26;12.02;;;3.22;;
19434;SDS011;9853;50.848;4.108;2023-07-20T01:14:33;11.13;;;3.15;;
19434;SDS011;9853;50.848;4.108;2023-07-20T01:16:34;12.63;;;3.33;;
19434;SDS011;9853;50.848;4.108;2023-07-20T01:18:35;15.13;;;3.75;;
19434;SDS011;9853;50.848;4.108;2023-07-20T01:20:36;13.20;;;3.78;;
19434;SDS011;9853;50.848;4.108;2023-07-20T01:29:16;15.60;;;5.28;;
19434;SDS011;9853;50.848;4.108;2023-07-20T01:31:30;15.32;;;4.20;;
19434;SDS011;9853;50.848;4.108;2023-07-20T01:33:33;13.90;;;4.85;;
19434;SDS011;9853;50.848;4.108;2023-07-20T01:35:35;14.77;;;4.57;;
19434;SDS011;9853;50.848;4.108;2023-07-20T01:37:37;19.83;;;4.88;;
19434;SDS011;9853;50.848;4.108;2023-07-20T01:39:39;17.75;;;4.47;;
19434;SDS011;9853;50.848;4.108;2023-07-20T01:41:41;12.35;;;4.82;;
19434;SDS011;9853;50.848;4.108;2023-07-20T01:43:42;17.73;;;4.78;;
19434;SDS011;9853;50.848;4.108;2023-07-20T01:45:43;14.60;;;4.57;;
19434;SDS011;9853;50.848;4.108;2023-07-20T01:47:44;16.35;;;4.53;;
19434;SDS011;9853;50.848;4.108;2023-07-20T01:49:45;15.95;;;5.15;;
19434;SDS011;9853;50.848;4.108;2023-07-20T01:51:45;14.30;;;4.53;;
19434;SDS011;9853;50.848;4.108;2023-07-20T01:53:46;15.77;;;5.20;;
19434;SDS011;9853;50.848;4.108;2023-07-20T01:55:48;15.30;;;5.72;;
19434;SDS011;9853;50.848;4.108;2023-07-20T01:57:49;16.70;;;5.57;;
19434;SDS011;9853;50.848;4.108;2023-07-20T01:59:50;18.05;;;5.90;;
19434;SDS011;9853;50.848;4.108;2023-07-20T02:01:50;14.05;;;5.90;;
19434;SDS011;9853;50.848;4.108;2023-07-20T02:03:52;18.92;;;6.07;;
19434;SDS011;9853;50.848;4.108;2023-07-20T02:05:53;19.17;;;6.18;;
19434;SDS011;9853;50.848;4.108;2023-07-20T02:07:54;22.25;;;6.28;;
19434;SDS011;9853;50.848;4.108;2023-07-20T02:09:56;15.13;;;5.85;;
19434;SDS011;9853;50.848;4.108;2023-07-20T02:11:56;18.85;;;5.72;;
19434;SDS011;9853;50.848;4.108;2023-07-20T02:13:57;17.40;;;6.00;;
19434;SDS011;9853;50.848;4.108;2023-07-20T02:15:58;14.48;;;5.47;;
19434;SDS011;9853;50.848;4.108;2023-07-20T02:17:58;11.48;;;5.03;;
19434;SDS011;9853;50.848;4.108;2023-07-20T02:19:59;13.35;;;6.03;;
19434;SDS011;9853;50.848;4.108;2023-07-20T02:22:00;17.35;;;5.63;;
19434;SDS011;9853;50.848;4.108;2023-07-20T02:24:01;21.50;;;6.00;;
19434;SDS011;9853;50.848;4.108;2023-07-20T02:26:01;15.40;;;5.90;;
19434;SDS011;9853;50.848;4.108;2023-07-20T02:28:03;19.17;;;6.15;;
19434;SDS011;9853;50.848;4.108;2023-07-20T02:30:04;19.42;;;6.55;;
19434;SDS011;9853;50.848;4.108;2023-07-20T02:32:06;16.85;;;5.95;;
19434;SDS011;9853;50.848;4.108;2023-07-20T02:34:07;14.30;;;5.68;;
19434;SDS011;9853;50.848;4.108;2023-07-20T02:36:08;18.73;;;6.50;;
19434;SDS011;9853;50.848;4.108;2023-07-20T02:38:09;14.10;;;5.95;;
19434;SDS011;9853;50.848;4.108;2023-07-20T02:40:09;20.27;;;6.22;;
19434;SDS011;9853;50.848;4.108;2023-07-20T02:42:11;18.20;;;6.10;;
19434;SDS011;9853;50.848;4.108;2023-07-20T02:44:13;16.63;;;6.55;;
19434;SDS011;9853;50.848;4.108;2023-07-20T02:46:14;17.20;;;6.38;;
19434;SDS011;9853;50.848;4.108;2023-07-20T02:48:15;17.42;;;6.68;;
19434;SDS011;9853;50.848;4.108;2023-07-20T02:50:16;19.48;;;6.78;;
19434;SDS011;9853;50.848;4.108;2023-07-20T02:52:16;17.35;;;6.90;;
19434;SDS011;9853;50.848;4.108;2023-07-20T02:54:17;18.92;;;6.40;;
19434;SDS011;9853;50.848;4.108;2023-07-20T02:56:18;18.25;;;6.80;;
19434;SDS011;9853;50.848;4.108;2023-07-20T02:58:19;20.02;;;7.13;;
19434;SDS011;9853;50.848;4.108;2023-07-20T03:00:19;16.75;;;6.70;;
19434;SDS011;9853;50.848;4.108;2023-07-20T03:02:22;20.02;;;7.47;;
19434;SDS011;9853;50.848;4.108;2023-07-20T03:04:23;19.17;;;7.53;;
19434;SDS011;9853;50.848;4.108;2023-07-20T03:06:25;21.10;;;8.00;;
19434;SDS011;9853;50.848;4.108;2023-07-20T03:08:26;18.38;;;8.18;;
19434;SDS011;9853;50.848;4.108;2023-07-20T03:10:27;19.38;;;7.95;;
19434;SDS011;9853;50.848;4.108;2023-07-20T03:12:29;14.70;;;7.55;;
19434;SDS011;9853;50.848;4.108;2023-07-20T03:14:30;17.40;;;7.53;;
19434;SDS011;9853;50.848;4.108;2023-07-20T03:16:31;25.77;;;8.25;;
19434;SDS011;9853;50.848;4.108;2023-07-20T03:18:34;22.70;;;7.80;;
19434;SDS011;9853;50.848;4.108;2023-07-20T03:20:35;19.70;;;7.72;;
19434;SDS011;9853;50.848;4.108;2023-07-20T03:22:36;23.23;;;8.35;;
19434;SDS011;9853;50.848;4.108;2023-07-20T03:24:37;20.33;;;7.70;;
19434;SDS011;9853;50.848;4.108;2023-07-20T03:26:38;19.58;;;7.72;;
19434;SDS011;9853;50.848;4.108;2023-07-20T03:28:41;20.88;;;8.30;;
19434;SDS011;9853;50.848;4.108;2023-07-20T03:30:43;19.25;;;8.40;;
19434;SDS011;9853;50.848;4.108;2023-07-20T03:32:45;23.88;;;8.90;;
19434;SDS011;9853;50.848;4.108;2023-07-20T03:34:45;22.55;;;8.27;;
19434;SDS011;9853;50.848;4.108;2023-07-20T03:36:48;20.67;;;9.32;;
19434;SDS011;9853;50.848;4.108;2023-07-20T03:38:48;28.63;;;9.23;;
19434;SDS011;9853;50.848;4.108;2023-07-20T03:40:50;19.58;;;7.80;;
19434;SDS011;9853;50.848;4.108;2023-07-20T03:42:52;23.38;;;8.27;;
19434;SDS011;9853;50.848;4.108;2023-07-20T03:44:53;22.52;;;8.50;;
19434;SDS011;9853;50.848;4.108;2023-07-20T03:46:53;15.75;;;7.78;;
19434;SDS011;9853;50.848;4.108;2023-07-20T03:48:54;20.80;;;8.35;;
19434;SDS011;9853;50.848;4.108;2023-07-20T03:50:55;24.08;;;8.55;;
19434;SDS011;9853;50.848;4.108;2023-07-20T03:52:55;19.40;;;8.95;;
19434;SDS011;9853;50.848;4.108;2023-07-20T03:54:56;19.65;;;8.95;;
19434;SDS011;9853;50.848;4.108;2023-07-20T03:56:57;22.60;;;8.85;;
19434;SDS011;9853;50.848;4.108;2023-07-20T03:58:58;20.23;;;8.23;;
19434;SDS011;9853;50.848;4.108;2023-07-20T04:00:58;16.05;;;8.25;;
19434;SDS011;9853;50.848;4.108;2023-07-20T04:02:59;20.15;;;8.00;;
19434;SDS011;9853;50.848;4.108;2023-07-20T04:05:00;15.05;;;7.80;;
19434;SDS011;9853;50.848;4.108;2023-07-20T04:07:01;17.95;;;8.57;;
19434;SDS011;9853;50.848;4.108;2023-07-20T04:09:02;18.80;;;7.38;;
19434;SDS011;9853;50.848;4.108;2023-07-20T04:11:05;19.08;;;8.20;;
19434;SDS011;9853;50.848;4.108;2023-07-20T04:13:05;14.77;;;7.40;;
19434;SDS011;9853;50.848;4.108;2023-07-20T04:15:07;19.65;;;7.43;;
19434;SDS011;9853;50.848;4.108;2023-07-20T04:17:08;19.48;;;8.50;;
19434;SDS011;9853;50.848;4.108;2023-07-20T04:19:12;22.27;;;8.82;;
19434;SDS011;9853;50.848;4.108;2023-07-20T04:21:13;21.25;;;8.60;;
19434;SDS011;9853;50.848;4.108;2023-07-20T04:23:13;17.15;;;7.75;;
19434;SDS011;9853;50.848;4.108;2023-07-20T04:25:14;19.27;;;8.40;;
19434;SDS011;9853;50.848;4.108;2023-07-20T04:27:15;16.75;;;8.20;;
19434;SDS011;9853;50.848;4.108;2023-07-20T04:29:16;23.52;;;7.50;;
19434;SDS011;9853;50.848;4.108;2023-07-20T04:31:17;14.55;;;8.07;;
19434;SDS011;9853;50.848;4.108;2023-07-20T04:33:18;16.17;;;8.52;;
19434;SDS011;9853;50.848;4.108;2023-07-20T04:37:46;22.70;;;9.18;;
19434;SDS011;9853;50.848;4.108;2023-07-20T04:39:51;21.27;;;8.88;;
19434;SDS011;9853;50.848;4.108;2023-07-20T04:41:52;23.17;;;9.13;;
19434;SDS011;9853;50.848;4.108;2023-07-20T04:43:52;22.27;;;8.98;;
19434;SDS011;9853;50.848;4.108;2023-07-20T04:45:59;17.35;;;8.38;;
19434;SDS011;9853;50.848;4.108;2023-07-20T04:48:00;17.95;;;8.15;;
19434;SDS011;9853;50.848;4.108;2023-07-20T04:50:01;16.27;;;7.22;;
19434;SDS011;9853;50.848;4.108;2023-07-20T04:52:03;19.08;;;8.05;;
19434;SDS011;9853;50.848;4.108;2023-07-20T04:54:05;19.75;;;8.48;;
19434;SDS011;9853;50.848;4.108;2023-07-20T04:56:09;16.15;;;9.30;;
19434;SDS011;9853;50.848;4.108;2023-07-20T04:58:10;15.23;;;8.93;;
19434;SDS011;9853;50.848;4.108;2023-07-20T05:00:12;12.70;;;8.57;;
19434;SDS011;9853;50.848;4.108;2023-07-20T05:02:14;22.05;;;9.10;;
19434;SDS011;9853;50.848;4.108;2023-07-20T05:04:15;19.98;;;10.05;;
19434;SDS011;9853;50.848;4.108;2023-07-20T05:06:16;19.55;;;9.13;;
19434;SDS011;9853;50.848;4.108;2023-07-20T05:08:17;22.48;;;10.10;;
19434;SDS011;9853;50.848;4.108;2023-07-20T05:10:18;20.17;;;10.07;;
19434;SDS011;9853;50.848;4.108;2023-07-20T05:12:18;20.17;;;10.13;;
19434;SDS011;9853;50.848;4.108;2023-07-20T05:14:19;18.88;;;10.65;;
19434;SDS011;9853;50.848;4.108;2023-07-20T05:16:21;17.42;;;9.57;;
19434;SDS011;9853;50.848;4.108;2023-07-20T05:18:22;15.75;;;8.07;;
19434;SDS011;9853;50.848;4.108;2023-07-20T05:20:24;24.38;;;10.90;;
19434;SDS011;9853;50.848;4.108;2023-07-20T05:22:24;18.73;;;8.68;;
19434;SDS011;9853;50.848;4.108;2023-07-20T05:24:25;16.88;;;9.40;;
19434;SDS011;9853;50.848;4.108;2023-07-20T05:26:26;16.05;;;8.32;;
19434;SDS011;9853;50.848;4.108;2023-07-20T05:28:27;20.75;;;9.80;;
19434;SDS011;9853;50.848;4.108;2023-07-20T05:30:27;20.73;;;9.85;;
19434;SDS011;9853;50.848;4.108;2023-07-20T05:32:29;17.77;;;10.23;;
19434;SDS011;9853;50.848;4.108;2023-07-20T05:34:29;17.10;;;8.73;;
19434;SDS011;9853;50.848;4.108;2023-07-20T05:36:30;15.68;;;9.07;;
19434;SDS011;9853;50.848;4.108;2023-07-20T05:38:31;21.55;;;9.57;;
19434;SDS011;9853;50.848;4.108;2023-07-20T05:40:32;15.45;;;7.45;;
19434;SDS011;9853;50.848;4.108;2023-07-20T05:42:32;14.98;;;8.18;;
19434;SDS011;9853;50.848;4.108;2023-07-20T05:44:33;16.58;;;7.72;;
19434;SDS011;9853;50.848;4.108;2023-07-20T05:46:34;16.75;;;8.15;;
19434;SDS011;9853;50.848;4.108;2023-07-20T05:48:35;17.83;;;8.75;;
19434;SDS011;9853;50.848;4.108;2023-07-20T05:50:36;15.73;;;8.02;;
19434;SDS011;9853;50.848;4.108;2023-07-20T05:52:37;19.58;;;8.15;;
19434;SDS011;9853;50.848;4.108;2023-07-20T05:54:39;19.77;;;8.70;;
19434;SDS011;9853;50.848;4.108;2023-07-20T05:56:39;13.80;;;7.50;;
19434;SDS011;9853;50.848;4.108;2023-07-20T05:58:40;21.08;;;9.02;;
19434;SDS011;9853;50.848;4.108;2023-07-20T06:00:41;16.55;;;9.13;;
19434;SDS011;9853;50.848;4.108;2023-07-20T06:02:42;19.23;;;9.40;;
19434;SDS011;9853;50.848;4.108;2023-07-20T06:04:43;13.43;;;8.48;;
19434;SDS011;9853;50.848;4.108;2023-07-20T06:06:44;18.02;;;7.65;;
19434;SDS011;9853;50.848;4.108;2023-07-20T06:08:45;15.27;;;8.00;;
19434;SDS011;9853;50.848;4.108;2023-07-20T06:10:49;18.50;;;8.45;;
19434;SDS011;9853;50.848;4.108;2023-07-20T06:12:51;12.82;;;8.05;;
19434;SDS011;9853;50.848;4.108;2023-07-20T06:14:52;14.23;;;8.07;;
19434;SDS011;9853;50.848;4.108;2023-07-20T06:16:52;17.15;;;8.02;;
19434;SDS011;9853;50.848;4.108;2023-07-20T06:18:53;19.90;;;8.38;;
19434;SDS011;9853;50.848;4.108;2023-07-20T06:20:54;14.38;;;8.07;;
19434;SDS011;9853;50.848;4.108;2023-07-20T06:22:54;17.55;;;8.18;;
19434;SDS011;9853;50.848;4.108;2023-07-20T06:24:55;14.15;;;7.60;;
19434;SDS011;9853;50.848;4.108;2023-07-20T06:26:56;18.95;;;8.68;;
19434;SDS011;9853;50.848;4.108;2023-07-20T06:28:57;17.15;;;8.10;;
19434;SDS011;9853;50.848;4.108;2023-07-20T06:31:00;17.05;;;8.98;;
19434;SDS011;9853;50.848;4.108;2023-07-20T06:33:02;14.10;;;7.53;;
19434;SDS011;9853;50.848;4.108;2023-07-20T06:35:02;14.75;;;7.80;;
19434;SDS011;9853;50.848;4.108;2023-07-20T06:37:04;13.80;;;6.95;;
19434;SDS011;9853;50.848;4.108;2023-07-20T06:39:05;13.25;;;7.15;;
19434;SDS011;9853;50.848;4.108;2023-07-20T06:41:05;13.10;;;8.02;;
19434;SDS011;9853;50.848;4.108;2023-07-20T06:43:06;16.20;;;8.13;;
19434;SDS011;9853;50.848;4.108;2023-07-20T06:45:07;14.75;;;7.72;;
19434;SDS011;9853;50.848;4.108;2023-07-20T06:47:08;10.63;;;7.40;;
19434;SDS011;9853;50.848;4.108;2023-07-20T06:49:09;11.27;;;6.90;;
19434;SDS011;9853;50.848;4.108;2023-07-20T06:51:10;14.20;;;6.93;;
19434;SDS011;9853;50.848;4.108;2023-07-20T06:53:10;13.45;;;6.80;;
19434;SDS011;9853;50.848;4.108;2023-07-20T06:55:12;11.05;;;6.68;;
19434;SDS011;9853;50.848;4.108;2023-07-20T06:57:13;16.83;;;6.82;;
19434;SDS011;9853;50.848;4.108;2023-07-20T06:59:13;10.65;;;6.05;;
19434;SDS011;9853;50.848;4.108;2023-07-20T07:01:14;11.13;;;6.13;;
19434;SDS011;9853;50.848;4.108;2023-07-20T07:03:15;9.68;;;5.40;;
19434;SDS011;9853;50.848;4.108;2023-07-20T07:05:16;12.77;;;5.55;;
19434;SDS011;9853;50.848;4.108;2023-07-20T07:07:16;13.25;;;5.55;;
19434;SDS011;9853;50.848;4.108;2023-07-20T07:09:17;8.23;;;4.90;;
19434;SDS011;9853;50.848;4.108;2023-07-20T07:11:18;8.30;;;4.85;;
19434;SDS011;9853;50.848;4.108;2023-07-20T07:13:19;6.10;;;4.22;;
19434;SDS011;9853;50.848;4.108;2023-07-20T07:15:19;8.52;;;3.80;;
19434;SDS011;9853;50.848;4.108;2023-07-20T07:17:20;3.92;;;2.53;;
19434;SDS011;9853;50.848;4.108;2023-07-20T07:19:21;5.22;;;2.10;;
19434;SDS011;9853;50.848;4.108;2023-07-20T07:21:21;7.00;;;2.70;;
19434;SDS011;9853;50.848;4.108;2023-07-20T07:23:22;3.78;;;2.10;;
19434;SDS011;9853;50.848;4.108;2023-07-20T07:25:23;4.43;;;1.90;;
19434;SDS011;9853;50.848;4.108;2023-07-20T07:27:24;7.18;;;3.00;;
19434;SDS011;9853;50.848;4.108;2023-07-20T07:29:24;6.03;;;2.60;;
19434;SDS011;9853;50.848;4.108;2023-07-20T07:31:25;4.78;;;2.10;;
19434;SDS011;9853;50.848;4.108;2023-07-20T07:33:26;2.95;;;2.42;;
19434;SDS011;9853;50.848;4.108;2023-07-20T07:35:27;5.85;;;2.45;;
19434;SDS011;9853;50.848;4.108;2023-07-20T07:37:27;6.35;;;2.47;;
19434;SDS011;9853;50.848;4.108;2023-07-20T07:39:29;3.83;;;2.30;;
19434;SDS011;9853;50.848;4.108;2023-07-20T07:41:30;5.45;;;2.53;;
19434;SDS011;9853;50.848;4.108;2023-07-20T07:43:30;7.35;;;2.50;;
19434;SDS011;9853;50.848;4.108;2023-07-20T07:45:33;5.15;;;2.45;;
19434;SDS011;9853;50.848;4.108;2023-07-20T07:47:36;3.72;;;2.25;;
19434;SDS011;9853;50.848;4.108;2023-07-20T07:49:37;3.97;;;2.70;;
19434;SDS011;9853;50.848;4.108;2023-07-20T07:51:38;3.45;;;2.00;;
19434;SDS011;9853;50.848;4.108;2023-07-20T07:53:38;5.82;;;2.22;;
19434;SDS011;9853;50.848;4.108;2023-07-20T07:55:40;5.38;;;2.72;;
19434;SDS011;9853;50.848;4.108;2023-07-20T07:57:41;4.90;;;2.30;;
19434;SDS011;9853;50.848;4.108;2023-07-20T07:59:42;3.88;;;1.90;;
19434;SDS011;9853;50.848;4.108;2023-07-20T08:01:42;3.13;;;1.50;;
19434;SDS011;9853;50.848;4.108;2023-07-20T08:03:43;3.35;;;1.50;;
19434;SDS011;9853;50.848;4.108;2023-07-20T08:05:45;3.80;;;1.67;;
19434;SDS011;9853;50.848;4.108;2023-07-20T08:07:46;3.75;;;1.48;;
19434;SDS011;9853;50.848;4.108;2023-07-20T08:09:47;2.25;;;1.05;;
19434;SDS011;9853;50.848;4.108;2023-07-20T08:11:47;1.83;;;0.98;;
19434;SDS011;9853;50.848;4.108;2023-07-20T08:13:49;2.97;;;1.17;;
19434;SDS011;9853;50.848;4.108;2023-07-20T08:15:50;1.83;;;0.90;;
19434;SDS011;9853;50.848;4.108;2023-07-20T08:17:51;0.70;;;0.63;;
19434;SDS011;9853;50.848;4.108;2023-07-20T08:19:52;1.80;;;0.80;;
19434;SDS011;9853;50.848;4.108;2023-07-20T08:21:53;3.22;;;0.90;;
19434;SDS011;9853;50.848;4.108;2023-07-20T08:23:54;6.47;;;1.00;;
19434;SDS011;9853;50.848;4.108;2023-07-20T08:25:54;2.90;;;0.95;;
19434;SDS011;9853;50.848;4.108;2023-07-20T08:27:55;1.50;;;0.80;;
19434;SDS011;9853;50.848;4.108;2023-07-20T08:29:56;3.95;;;0.82;;
19434;SDS011;9853;50.848;4.108;2023-07-20T08:31:56;3.05;;;1.10;;
19434;SDS011;9853;50.848;4.108;2023-07-20T08:33:57;1.88;;;0.70;;
19434;SDS011;9853;50.848;4.108;2023-07-20T08:35:58;2.53;;;0.90;;
19434;SDS011;9853;50.848;4.108;2023-07-20T08:37:58;4.53;;;1.08;;
19434;SDS011;9853;50.848;4.108;2023-07-20T08:39:59;1.27;;;0.70;;
19434;SDS011;9853;50.848;4.108;2023-07-20T08:42:01;2.03;;;0.70;;
19434;SDS011;9853;50.848;4.108;2023-07-20T08:44:04;1.70;;;0.85;;
19434;SDS011;9853;50.848;4.108;2023-07-20T08:46:06;1.58;;;0.75;;
19434;SDS011;9853;50.848;4.108;2023-07-20T08:48:08;1.40;;;0.90;;
19434;SDS011;9853;50.848;4.108;2023-07-20T08:50:09;4.38;;;0.82;;
19434;SDS011;9853;50.848;4.108;2023-07-20T08:52:11;4.50;;;0.80;;
19434;SDS011;9853;50.848;4.108;2023-07-20T08:54:12;1.40;;;0.82;;
19434;SDS011;9853;50.848;4.108;2023-07-20T08:56:14;5.00;;;1.05;;
19434;SDS011;9853;50.848;4.108;2023-07-20T08:58:18;3.25;;;1.02;;
19434;SDS011;9853;50.848;4.108;2023-07-20T09:00:19;1.42;;;1.10;;
19434;SDS011;9853;50.848;4.108;2023-07-20T09:02:20;2.85;;;1.00;;
19434;SDS011;9853;50.848;4.108;2023-07-20T09:04:24;5.22;;;0.90;;
19434;SDS011;9853;50.848;4.108;2023-07-20T09:06:24;1.40;;;0.70;;
19434;SDS011;9853;50.848;4.108;2023-07-20T09:08:25;3.13;;;0.85;;
19434;SDS011;9853;50.848;4.108;2023-07-20T09:10:26;2.65;;;0.90;;
19434;SDS011;9853;50.848;4.108;2023-07-20T09:12:27;2.00;;;0.80;;
19434;SDS011;9853;50.848;4.108;2023-07-20T09:14:28;2.72;;;1.00;;
19434;SDS011;9853;50.848;4.108;2023-07-20T09:16:31;2.13;;;1.00;;
19434;SDS011;9853;50.848;4.108;2023-07-20T09:18:33;2.35;;;1.00;;
19434;SDS011;9853;50.848;4.108;2023-07-20T09:20:37;1.67;;;0.88;;
19434;SDS011;9853;50.848;4.108;2023-07-20T09:22:38;3.00;;;1.00;;
19434;SDS011;9853;50.848;4.108;2023-07-20T09:24:41;2.42;;;0.90;;
19434;SDS011;9853;50.848;4.108;2023-07-20T09:26:43;2.92;;;0.90;;
19434;SDS011;9853;50.848;4.108;2023-07-20T09:28:47;1.20;;;0.70;;
19434;SDS011;9853;50.848;4.108;2023-07-20T09:30:50;1.88;;;0.80;;
19434;SDS011;9853;50.848;4.108;2023-07-20T09:32:51;2.15;;;0.95;;
19434;SDS011;9853;50.848;4.108;2023-07-20T09:34:52;3.03;;;1.00;;
19434;SDS011;9853;50.848;4.108;2023-07-20T09:36:52;6.22;;;0.85;;
19434;SDS011;9853;50.848;4.108;2023-07-20T09:38:53;1.75;;;0.90;;
19434;SDS011;9853;50.848;4.108;2023-07-20T09:40:54;1.48;;;0.90;;
19434;SDS011;9853;50.848;4.108;2023-07-20T09:42:55;3.53;;;1.00;;
19434;SDS011;9853;50.848;4.108;2023-07-20T09:45:06;3.72;;;0.85;;
19434;SDS011;9853;50.848;4.108;2023-07-20T09:47:08;2.78;;;0.90;;
19434;SDS011;9853;50.848;4.108;2023-07-20T09:49:08;1.65;;;0.90;;
19434;SDS011;9853;50.848;4.108;2023-07-20T09:51:09;6.53;;;0.90;;
19434;SDS011;9853;50.848;4.108;2023-07-20T09:53:11;2.50;;;0.95;;
19434;SDS011;9853;50.848;4.108;2023-07-20T09:55:15;6.50;;;0.80;;
19434;SDS011;9853;50.848;4.108;2023-07-20T09:57:16;1.48;;;0.70;;
19434;SDS011;9853;50.848;4.108;2023-07-20T09:59:17;5.07;;;1.20;;
19434;SDS011;9853;50.848;4.108;2023-07-20T10:01:20;1.25;;;1.02;;
19434;SDS011;9853;50.848;4.108;2023-07-20T10:03:22;2.35;;;1.30;;
19434;SDS011;9853;50.848;4.108;2023-07-20T10:05:28;3.17;;;1.30;;
19434;SDS011;9853;50.848;4.108;2023-07-20T10:07:34;4.15;;;0.98;;
19434;SDS011;9853;50.848;4.108;2023-07-20T10:09:40;2.42;;;0.85;;
19434;SDS011;9853;50.848;4.108;2023-07-20T10:11:43;2.53;;;1.00;;
19434;SDS011;9853;50.848;4.108;2023-07-20T10:13:46;2.60;;;0.98;;
19434;SDS011;9853;50.848;4.108;2023-07-20T10:15:50;2.20;;;0.80;;
19434;SDS011;9853;50.848;4.108;2023-07-20T10:17:59;4.88;;;1.15;;
19434;SDS011;9853;50.848;4.108;2023-07-20T10:20:08;3.35;;;1.10;;
19434;SDS011;9853;50.848;4.108;2023-07-20T10:22:18;2.90;;;0.98;;
19434;SDS011;9853;50.848;4.108;2023-07-20T10:24:23;7.90;;;1.15;;
19434;SDS011;9853;50.848;4.108;2023-07-20T10:26:25;2.05;;;1.15;;
19434;SDS011;9853;50.848;4.108;2023-07-20T10:28:26;7.43;;;2.63;;
19434;SDS011;9853;50.848;4.108;2023-07-20T10:30:28;5.53;;;1.52;;
19434;SDS011;9853;50.848;4.108;2023-07-20T10:32:29;5.63;;;2.10;;
19434;SDS011;9853;50.848;4.108;2023-07-20T10:34:30;4.13;;;1.63;;
19434;SDS011;9853;50.848;4.108;2023-07-20T10:36:32;4.30;;;1.80;;
19434;SDS011;9853;50.848;4.108;2023-07-20T10:38:39;2.90;;;1.30;;
19434;SDS011;9853;50.848;4.108;2023-07-20T10:40:43;3.95;;;1.10;;
19434;SDS011;9853;50.848;4.108;2023-07-20T10:42:58;3.60;;;1.10;;
19434;SDS011;9853;50.848;4.108;2023-07-20T10:45:09;2.15;;;1.00;;
19434;SDS011;9853;50.848;4.108;2023-07-20T10:47:10;5.00;;;1.10;;
19434;SDS011;9853;50.848;4.108;2023-07-20T10:49:13;2.33;;;1.17;;
19434;SDS011;9853;50.848;4.108;2023-07-20T10:51:20;1.50;;;0.85;;
19434;SDS011;9853;50.848;4.108;2023-07-20T10:53:21;3.45;;;1.10;;
19434;SDS011;9853;50.848;4.108;2023-07-20T10:55:22;2.00;;;1.00;;
19434;SDS011;9853;50.848;4.108;2023-07-20T10:57:29;3.15;;;0.90;;
19434;SDS011;9853;50.848;4.108;2023-07-20T11:01:35;6.80;;;1.20;;
19434;SDS011;9853;50.848;4.108;2023-07-20T11:03:37;2.65;;;1.13;;
19434;SDS011;9853;50.848;4.108;2023-07-20T11:05:39;7.32;;;1.40;;
19434;SDS011;9853;50.848;4.108;2023-07-20T11:07:42;3.28;;;1.23;;
19434;SDS011;9853;50.848;4.108;2023-07-20T11:09:43;4.35;;;1.15;;
19434;SDS011;9853;50.848;4.108;2023-07-20T11:11:47;2.88;;;1.30;;
19434;SDS011;9853;50.848;4.108;2023-07-20T11:18:10;1.55;;;1.23;;
19434;SDS011;9853;50.848;4.108;2023-07-20T11:20:12;2.55;;;1.27;;
19434;SDS011;9853;50.848;4.108;2023-07-20T11:22:16;3.55;;;1.40;;
19434;SDS011;9853;50.848;4.108;2023-07-20T11:24:18;2.47;;;1.27;;
19434;SDS011;9853;50.848;4.108;2023-07-20T11:26:19;2.67;;;1.33;;
19434;SDS011;9853;50.848;4.108;2023-07-20T11:28:19;3.95;;;1.58;;
19434;SDS011;9853;50.848;4.108;2023-07-20T11:30:20;4.05;;;1.50;;
19434;SDS011;9853;50.848;4.108;2023-07-20T11:32:21;2.08;;;1.20;;
19434;SDS011;9853;50.848;4.108;2023-07-20T11:34:23;3.22;;;1.30;;
19434;SDS011;9853;50.848;4.108;2023-07-20T11:36:23;3.80;;;1.60;;
19434;SDS011;9853;50.848;4.108;2023-07-20T11:38:24;7.00;;;1.48;;
19434;SDS011;9853;50.848;4.108;2023-07-20T11:40:25;2.47;;;1.50;;
19434;SDS011;9853;50.848;4.108;2023-07-20T11:42:26;3.35;;;1.70;;
19434;SDS011;9853;50.848;4.108;2023-07-20T11:44:28;4.07;;;1.70;;
19434;SDS011;9853;50.848;4.108;2023-07-20T11:46:29;2.95;;;1.50;;
19434;SDS011;9853;50.848;4.108;2023-07-20T11:48:30;5.53;;;1.80;;
19434;SDS011;9853;50.848;4.108;2023-07-20T11:50:30;2.03;;;1.42;;
19434;SDS011;9853;50.848;4.108;2023-07-20T11:52:32;3.92;;;1.63;;
19434;SDS011;9853;50.848;4.108;2023-07-20T11:54:37;3.47;;;1.40;;
19434;SDS011;9853;50.848;4.108;2023-07-20T11:56:41;4.18;;;1.63;;
19434;SDS011;9853;50.848;4.108;2023-07-20T11:58:45;10.27;;;1.98;;
19434;SDS011;9853;50.848;4.108;2023-07-20T12:00:47;4.97;;;2.03;;
19434;SDS011;9853;50.848;4.108;2023-07-20T12:02:48;3.30;;;1.70;;
19434;SDS011;9853;50.848;4.108;2023-07-20T12:04:48;3.35;;;1.80;;
19434;SDS011;9853;50.848;4.108;2023-07-20T12:06:49;2.97;;;1.63;;
19434;SDS011;9853;50.848;4.108;2023-07-20T12:08:50;4.38;;;1.67;;
19434;SDS011;9853;50.848;4.108;2023-07-20T12:10:55;1.88;;;1.35;;
19434;SDS011;9853;50.848;4.108;2023-07-20T12:13:01;4.53;;;1.70;;
19434;SDS011;9853;50.848;4.108;2023-07-20T12:15:16;3.33;;;1.67;;
19434;SDS011;9853;50.848;4.108;2023-07-20T12:17:20;2.10;;;1.55;;
19434;SDS011;9853;50.848;4.108;2023-07-20T12:19:20;5.75;;;1.80;;
19434;SDS011;9853;50.848;4.108;2023-07-20T12:21:25;3.35;;;1.50;;
19434;SDS011;9853;50.848;4.108;2023-07-20T12:23:25;3.25;;;1.50;;
19434;SDS011;9853;50.848;4.108;2023-07-20T12:25:45;3.75;;;1.60;;
19434;SDS011;9853;50.848;4.108;2023-07-20T12:27:47;4.30;;;1.77;;
19434;SDS011;9853;50.848;4.108;2023-07-20T12:29:48;8.27;;;1.77;;
19434;SDS011;9853;50.848;4.108;2023-07-20T12:31:49;6.75;;;1.50;;
19434;SDS011;9853;50.848;4.108;2023-07-20T12:33:50;3.72;;;1.55;;